Time;durP1;ratioP1;P1;durP2;ratioP2;P2;SDS_P1;SDS_P2;PMS_P1;PMS_P2;Temp;Humidity;BMP_temperature;BMP_pressure;BME280_temperature;BME280_humidity;BME280_pressure;Samples;Min_cycle;Max_cycle;Signal;HPM_P1;HPM_P2
2021/08/06 00:02:20;;;;;;;4.67;2.83;;;;;;;19.32;87.80;100116.47;5287247;28;20472;-67
2021/08/06 00:04:52;;;;;;;5.93;3.33;;;;;;;19.34;87.99;100114.41;5286341;28;20063;-67
2021/08/06 00:07:23;;;;;;;7.87;3.40;;;;;;;19.36;87.76;100122.19;5283989;28;20028;-67
2021/08/06 00:09:55;;;;;;;3.93;3.10;;;;;;;19.34;88.05;100113.59;5288331;28;20028;-67
2021/08/06 00:12:26;;;;;;;4.13;3.10;;;;;;;19.33;88.20;100112.78;5288908;28;20077;-67
2021/08/06 00:14:57;;;;;;;3.70;2.70;;;;;;;19.35;87.38;100116.03;5285020;28;20028;-67
2021/08/06 00:17:29;;;;;;;4.27;3.20;;;;;;;19.34;87.27;100109.09;5288195;28;20028;-67
2021/08/06 00:20:00;;;;;;;4.60;3.23;;;;;;;19.31;87.48;100106.03;5281621;28;20367;-67
2021/08/06 00:22:32;;;;;;;4.20;3.00;;;;;;;19.32;87.24;100103.19;5284921;28;20024;-67
2021/08/06 00:25:03;;;;;;;6.50;3.20;;;;;;;19.31;86.95;100098.91;5283490;28;20038;-67
2021/08/06 00:27:35;;;;;;;3.47;2.57;;;;;;;19.32;87.33;100107.66;5269019;28;20079;-67
2021/08/06 00:30:07;;;;;;;3.77;2.50;;;;;;;19.36;87.69;100103.63;5287076;28;20028;-67
2021/08/06 00:32:38;;;;;;;6.67;2.90;;;;;;;19.35;87.08;100108.09;5286895;28;20036;-67
2021/08/06 00:35:09;;;;;;;4.43;2.60;;;;;;;19.36;86.84;100100.97;5287624;28;20448;-67
2021/08/06 00:37:40;;;;;;;4.40;2.60;;;;;;;19.34;87.07;100100.31;5287407;28;20432;-67
2021/08/06 00:40:12;;;;;;;5.17;2.70;;;;;;;19.36;86.83;100095.66;5287493;28;20112;-67
2021/08/06 00:42:43;;;;;;;5.37;2.70;;;;;;;19.37;86.96;100098.09;5287788;28;20058;-67
2021/08/06 00:45:15;;;;;;;3.77;2.43;;;;;;;19.34;86.68;100092.38;5285419;28;20031;-67
2021/08/06 00:47:47;;;;;;;5.53;2.67;;;;;;;19.33;87.36;100085.44;5284141;28;20032;-67
2021/08/06 00:50:18;;;;;;;5.65;2.67;;;;;;;19.33;87.02;100080.13;5285384;28;20060;-67
2021/08/06 00:52:50;;;;;;;5.07;2.77;;;;;;;19.34;87.12;100093.19;5270587;28;20063;-67
2021/08/06 00:55:21;;;;;;;6.87;2.97;;;;;;;19.32;86.89;100089.91;5286978;28;20020;-67
2021/08/06 00:57:53;;;;;;;6.10;2.80;;;;;;;19.30;86.90;100085.84;5285607;28;20027;-67
2021/08/06 01:00:24;;;;;;;4.90;2.70;;;;;;;19.31;87.32;100087.47;5284579;28;20572;-67
2021/08/06 01:02:58;;;;;;;7.47;3.00;;;;;;;19.25;88.27;100086.44;5287943;28;20090;-67
2021/08/06 01:05:35;;;;;;;4.28;2.70;;;;;;;19.21;88.60;100082.56;5285560;28;20415;-67
2021/08/06 01:08:35;;;;;;;4.43;3.08;;;;;;;19.29;87.59;100082.34;5284913;28;20333;-67
2021/08/06 01:11:08;;;;;;;5.35;2.42;;;;;;;19.16;88.65;100085.81;5285237;28;20035;-67
2021/08/06 01:13:48;;;;;;;3.17;2.40;;;;;;;19.11;88.81;100075.00;5286225;28;20032;-67
2021/08/06 01:16:24;;;;;;;4.93;2.65;;;;;;;18.98;89.11;100055.59;5283825;28;20039;-67
2021/08/06 01:19:06;;;;;;;3.88;2.70;;;;;;;19.05;89.29;100081.13;5286909;28;20031;-67
2021/08/06 01:21:43;;;;;;;3.67;2.38;;;;;;;19.02;89.78;100081.56;5286915;28;20062;-67
2021/08/06 01:24:19;;;;;;;3.50;2.67;;;;;;;18.97;90.06;100078.69;5284065;28;20036;-67
2021/08/06 01:26:50;;;;;;;6.63;2.30;;;;;;;18.97;89.52;100081.31;5282900;28;20046;-67
2021/08/06 01:29:22;;;;;;;4.43;2.30;;;;;;;18.98;89.75;100071.53;5286585;28;20464;-67
2021/08/06 01:31:53;;;;;;;5.03;2.23;;;;;;;18.99;89.54;100073.19;5283667;28;20032;-67
2021/08/06 01:34:24;;;;;;;3.87;2.20;;;;;;;18.98;89.91;100077.69;5284918;28;20024;-67
2021/08/06 01:36:56;;;;;;;5.00;2.87;;;;;;;18.95;89.60;100072.78;5284687;28;20016;-67
2021/08/06 01:39:27;;;;;;;5.13;2.40;;;;;;;18.94;89.41;100064.00;5285975;28;20081;-67
2021/08/06 01:42:13;;;;;;;3.03;2.35;;;;;;;19.02;89.47;100067.47;5283614;28;20492;-67
2021/08/06 01:44:51;;;;;;;3.75;2.13;;;;;;;18.94;90.31;100065.81;5284056;28;20473;-68
2021/08/06 01:47:35;;;;;;;3.85;2.30;;;;;;;18.94;89.89;100066.66;5285919;28;20040;-68
2021/08/06 01:50:13;;;;;;;3.08;2.20;;;;;;;18.94;89.85;100064.00;5284786;28;20058;-68
2021/08/06 01:52:54;;;;;;;3.13;2.00;;;;;;;18.93;90.10;100062.34;5283500;28;20040;-68
2021/08/06 01:55:30;;;;;;;4.10;2.00;;;;;;;18.91;90.58;100052.97;5285005;28;20036;-68
2021/08/06 01:58:03;;;;;;;2.67;1.85;;;;;;;18.88;90.71;100048.88;5285273;28;20028;-67
2021/08/06 02:00:35;;;;;;;3.15;1.92;;;;;;;18.88;90.85;100051.53;5283142;28;20052;-68
2021/08/06 02:03:07;;;;;;;2.55;1.75;;;;;;;18.88;91.45;100045.41;5283683;28;20107;-68
2021/08/06 02:05:39;;;;;;;2.65;1.45;;;;;;;18.91;91.21;100045.00;5283404;28;20616;-68
2021/08/06 02:08:10;;;;;;;5.93;1.90;;;;;;;18.90;91.77;100038.03;5285353;28;20237;-68
2021/08/06 02:10:42;;;;;;;3.57;1.97;;;;;;;18.90;91.88;100041.53;5285799;28;20047;-68
2021/08/06 02:13:13;;;;;;;3.23;1.83;;;;;;;18.87;92.20;100036.63;5284521;28;20023;-68
2021/08/06 02:15:50;;;;;;;2.80;1.93;;;;;;;18.90;92.24;100032.72;5285452;28;20728;-68
2021/08/06 02:18:23;;;;;;;3.92;1.92;;;;;;;18.87;92.68;100033.16;5283047;28;20035;-68
2021/08/06 02:20:57;;;;;;;3.25;1.70;;;;;;;18.89;92.82;100029.25;5284678;28;20024;-68
2021/08/06 02:23:30;;;;;;;3.80;2.03;;;;;;;18.86;92.96;100034.16;5284004;28;20033;-68
2021/08/06 02:26:04;;;;;;;2.20;1.60;;;;;;;18.80;93.95;100030.50;5285746;28;20028;-68
2021/08/06 02:28:36;;;;;;;3.50;1.55;;;;;;;18.81;94.71;100033.97;5284242;28;20031;-68
2021/08/06 02:31:08;;;;;;;2.70;2.07;;;;;;;18.77;95.47;100025.59;5286548;28;20481;-67
2021/08/06 02:33:39;;;;;;;4.63;2.10;;;;;;;18.74;96.95;100028.66;5283972;28;20078;-68
2021/08/06 02:36:11;;;;;;;4.72;2.45;;;;;;;18.71;97.51;100019.28;5281573;28;20147;-68
2021/08/06 02:38:42;;;;;;;2.77;1.77;;;;;;;18.69;97.81;100023.94;5284061;28;20020;-67
2021/08/06 02:41:13;;;;;;;3.47;1.60;;;;;;;18.63;100.00;100030.03;5284668;28;20519;-68
2021/08/06 02:43:45;;;;;;;2.65;1.67;;;;;;;18.53;100.00;100024.31;5285810;28;20393;-68
2021/08/06 02:46:17;;;;;;;3.10;1.80;;;;;;;18.48;100.00;100021.44;5282671;28;20032;-68
2021/08/06 02:48:48;;;;;;;3.40;2.20;;;;;;;18.40;100.00;100030.41;5283406;28;20028;-68
2021/08/06 02:51:19;;;;;;;3.03;1.87;;;;;;;18.37;100.00;100027.34;5286222;28;20451;-68
2021/08/06 02:53:50;;;;;;;2.77;1.80;;;;;;;18.40;100.00;100021.63;5284159;28;20414;-68
2021/08/06 02:56:22;;;;;;;2.80;1.80;;;;;;;18.33;100.00;100023.44;5284589;28;20415;-67
2021/08/06 02:58:53;;;;;;;2.67;1.90;;;;;;;18.26;100.00;100025.28;5284378;28;20432;-67
2021/08/06 03:01:24;;;;;;;3.05;1.83;;;;;;;18.22;100.00;100030.16;5281136;28;20028;-67
2021/08/06 03:03:56;;;;;;;2.47;1.90;;;;;;;18.11;100.00;100015.66;5283613;28;20028;-67
2021/08/06 03:06:27;;;;;;;2.67;1.80;;;;;;;18.14;100.00;100017.09;5282467;28;20028;-67
2021/08/06 03:08:58;;;;;;;3.70;1.80;;;;;;;18.10;100.00;100011.34;5282799;28;20089;-67
2021/08/06 03:11:30;;;;;;;2.65;1.95;;;;;;;18.07;100.00;100008.28;5285379;28;20057;-67
2021/08/06 03:14:01;;;;;;;2.83;1.70;;;;;;;18.05;100.00;100003.19;5285356;28;20029;-67
2021/08/06 03:16:32;;;;;;;2.77;1.70;;;;;;;18.03;100.00;100007.88;5284092;28;20047;-67
2021/08/06 03:19:04;;;;;;;3.85;1.70;;;;;;;17.96;100.00;99997.28;5283787;28;20470;-67
2021/08/06 03:21:35;;;;;;;1.92;1.45;;;;;;;17.93;100.00;99988.91;5283072;28;20374;-66
2021/08/06 03:24:06;;;;;;;2.58;1.77;;;;;;;17.97;100.00;100000.72;5281530;28;20032;-67
2021/08/06 03:26:37;;;;;;;3.63;1.80;;;;;;;17.95;100.00;99997.44;5283271;28;20182;-67
2021/08/06 03:29:09;;;;;;;2.33;1.60;;;;;;;17.91;100.00;99990.91;5264812;28;20027;-67
2021/08/06 03:31:40;;;;;;;2.65;1.48;;;;;;;17.87;100.00;99994.97;5283444;28;20024;-67
2021/08/06 03:34:14;;;;;;;2.20;1.42;;;;;;;17.83;100.00;99989.25;5281754;28;20028;-67
2021/08/06 03:36:46;;;;;;;2.05;1.50;;;;;;;17.82;100.00;99992.13;5286362;28;20028;-67
2021/08/06 03:39:17;;;;;;;3.45;1.75;;;;;;;17.85;100.00;99991.72;5282597;28;20016;-67
2021/08/06 03:41:48;;;;;;;2.53;1.27;;;;;;;17.86;100.00;99988.88;5283566;28;20020;-67
2021/08/06 03:44:20;;;;;;;2.63;1.50;;;;;;;17.89;100.00;99995.63;5282387;28;20040;-67
2021/08/06 03:46:51;;;;;;;2.47;1.50;;;;;;;17.84;100.00;99992.72;5284036;28;20031;-67
2021/08/06 03:49:22;;;;;;;1.90;1.38;;;;;;;17.83;100.00;99986.59;5284497;28;20485;-67
2021/08/06 03:51:53;;;;;;;2.07;1.47;;;;;;;17.83;100.00;99988.44;5283062;28;20045;-68
2021/08/06 03:54:25;;;;;;;2.30;1.33;;;;;;;17.86;100.00;99988.06;5283107;28;20040;-67
2021/08/06 03:56:56;;;;;;;2.50;1.55;;;;;;;17.82;100.00;99989.47;5282366;28;20016;-67
2021/08/06 03:59:27;;;;;;;2.10;1.50;;;;;;;17.79;100.00;99997.81;5283659;28;20031;-68
2021/08/06 04:01:58;;;;;;;2.22;1.50;;;;;;;17.73;100.00;99996.75;5278234;28;20020;-67
2021/08/06 04:04:30;;;;;;;3.83;1.48;;;;;;;17.66;100.00;99994.06;5282758;28;20028;-69
2021/08/06 04:07:01;;;;;;;2.23;1.60;;;;;;;17.62;100.00;99986.72;5282921;28;20074;-68
2021/08/06 04:09:32;;;;;;;3.50;1.70;;;;;;;17.58;100.00;99991.59;5283794;28;20027;-67
2021/08/06 04:12:04;;;;;;;3.58;1.80;;;;;;;17.53;100.00;99996.63;5282590;28;20032;-68
2021/08/06 04:14:35;;;;;;;2.55;1.60;;;;;;;17.52;100.00;100000.31;5283772;28;20036;-68
2021/08/06 04:17:06;;;;;;;2.75;1.58;;;;;;;17.46;100.00;99999.28;5287205;28;20674;-67
2021/08/06 04:19:38;;;;;;;2.97;1.57;;;;;;;17.44;100.00;99995.16;5286339;28;20452;-68
2021/08/06 04:22:09;;;;;;;1.98;1.67;;;;;;;17.44;100.00;99995.16;5285072;28;20075;-67
2021/08/06 04:24:40;;;;;;;2.70;1.85;;;;;;;17.43;100.00;99996.19;5286643;28;20024;-67
2021/08/06 04:27:12;;;;;;;4.18;1.90;;;;;;;17.39;100.00;99997.59;5283476;28;20020;-68
2021/08/06 04:29:43;;;;;;;2.30;1.60;;;;;;;17.35;100.00;99991.03;5282766;28;20028;-67
2021/08/06 04:32:14;;;;;;;3.50;1.63;;;;;;;17.34;100.00;100000.81;5288884;28;20674;-68
2021/08/06 04:34:45;;;;;;;2.10;1.33;;;;;;;17.35;100.00;100001.63;5286924;28;20046;-67
2021/08/06 04:37:17;;;;;;;5.00;1.80;;;;;;;17.33;100.00;100003.66;5286456;28;20008;-67
2021/08/06 04:39:48;;;;;;;2.35;1.70;;;;;;;17.33;100.00;99999.19;5285100;28;20020;-68
2021/08/06 04:42:19;;;;;;;2.77;1.60;;;;;;;17.32;100.00;100008.16;5285395;28;20036;-67
2021/08/06 04:44:51;;;;;;;3.88;1.60;;;;;;;17.33;100.00;100008.97;5287885;28;20211;-67
2021/08/06 04:47:22;;;;;;;2.47;1.50;;;;;;;17.34;100.00;100003.44;5285532;28;20044;-68
2021/08/06 04:49:53;;;;;;;2.65;1.60;;;;;;;17.32;100.00;100005.50;5285780;28;20036;-68
2021/08/06 04:52:24;;;;;;;2.33;1.50;;;;;;;17.37;100.00;100010.19;5284799;28;20043;-67
2021/08/06 04:54:56;;;;;;;1.92;1.58;;;;;;;17.36;100.00;100006.75;5283928;28;20047;-67
2021/08/06 04:57:27;;;;;;;2.63;1.80;;;;;;;17.35;100.00;100001.63;5287410;28;20021;-68
2021/08/06 04:59:58;;;;;;;2.22;1.40;;;;;;;17.40;100.00;100015.13;5282965;28;20040;-69
2021/08/06 05:02:29;;;;;;;3.45;1.60;;;;;;;17.38;100.00;100004.69;5285081;28;20028;-68
2021/08/06 05:05:02;;;;;;;2.10;1.40;;;;;;;17.37;100.00;100004.91;5284023;28;20432;-67
2021/08/06 05:07:34;;;;;;;;;;;;;;;17.61;100.00;100017.66;5285550;28;20162;-67
2021/08/06 05:10:06;;;;;;;2.10;1.50;;;;;;;17.37;100.00;100013.66;5284984;28;20409;-67
2021/08/06 05:12:37;;;;;;;2.40;1.50;;;;;;;17.40;100.00;100010.63;5287308;28;20504;-67
2021/08/06 05:15:08;;;;;;;2.28;1.80;;;;;;;17.38;100.00;100012.63;5285641;28;20024;-67
2021/08/06 05:17:40;;;;;;;2.10;1.70;;;;;;;17.37;100.00;100018.16;5284203;28;20150;-67
2021/08/06 05:20:12;;;;;;;2.27;1.67;;;;;;;17.37;100.00;100015.50;5285810;28;20031;-67
2021/08/06 05:22:43;;;;;;;2.60;1.67;;;;;;;17.43;100.00;100017.38;5283402;28;20102;-67
2021/08/06 05:25:15;;;;;;;2.28;1.88;;;;;;;17.41;100.00;100020.19;5288613;28;20032;-67
2021/08/06 05:27:46;;;;;;;2.60;2.10;;;;;;;17.46;100.00;100019.59;5285210;28;20121;-67
2021/08/06 05:30:21;;;;;;;3.35;2.00;;;;;;;17.54;100.00;100021.28;5285004;28;20047;-67
2021/08/06 05:32:53;;;;;;;2.30;1.85;;;;;;;17.56;100.00;100019.28;5286009;28;20043;-67
2021/08/06 05:35:24;;;;;;;2.88;1.90;;;;;;;17.54;100.00;100029.22;5284177;28;20035;-67
2021/08/06 05:37:56;;;;;;;2.22;1.83;;;;;;;17.58;100.00;100031.31;5285025;28;20028;-67
2021/08/06 05:40:27;;;;;;;2.42;1.88;;;;;;;17.56;100.00;100033.31;5286386;28;20517;-67
2021/08/06 05:42:59;;;;;;;2.77;1.80;;;;;;;17.58;100.00;100027.81;5282989;28;20036;-67
2021/08/06 05:45:30;;;;;;;3.42;1.80;;;;;;;17.52;100.00;100030.25;5282785;28;20064;-67
2021/08/06 05:48:01;;;;;;;3.67;2.00;;;;;;;17.53;100.00;100033.72;5287301;28;20031;-67
2021/08/06 05:50:38;;;;;;;2.63;1.90;;;;;;;17.54;100.00;100032.72;5285621;28;20083;-67
2021/08/06 05:53:09;;;;;;;5.10;2.33;;;;;;;17.47;100.00;100032.69;5285849;28;20055;-67
2021/08/06 05:55:41;;;;;;;4.00;2.03;;;;;;;17.52;100.00;100035.53;5285359;28;20024;-67
2021/08/06 05:58:12;;;;;;;4.90;2.88;;;;;;;17.55;100.00;100044.13;5286209;28;20032;-66
2021/08/06 06:00:43;;;;;;;4.03;2.13;;;;;;;17.54;100.00;100043.31;5283803;28;20054;-66
2021/08/06 06:03:17;;;;;;;5.83;2.37;;;;;;;17.54;100.00;100048.63;5281782;28;20020;-66
2021/08/06 06:05:48;;;;;;;3.10;2.22;;;;;;;17.54;100.00;100043.31;5285986;28;20473;-67
2021/08/06 06:08:19;;;;;;;3.40;2.60;;;;;;;17.56;100.00;100051.88;5285155;28;20038;-69
2021/08/06 06:10:50;;;;;;;3.40;2.10;;;;;;;17.54;100.00;100050.41;5280764;28;20042;-67
2021/08/06 06:13:22;;;;;;;2.58;1.85;;;;;;;17.55;100.00;100049.44;5284879;28;20051;-67
2021/08/06 06:15:53;;;;;;;2.33;1.95;;;;;;;17.57;100.00;100048.19;5284328;28;20024;-67
2021/08/06 06:18:24;;;;;;;3.50;2.00;;;;;;;17.58;100.00;100055.16;5279643;28;20019;-67
2021/08/06 06:20:56;;;;;;;2.58;2.03;;;;;;;17.66;100.00;100059.47;5283067;28;20024;-67
2021/08/06 06:23:27;;;;;;;4.55;2.15;;;;;;;17.67;100.00;100066.41;5284047;28;20036;-67
2021/08/06 06:25:59;;;;;;;3.30;1.92;;;;;;;17.58;100.00;100068.41;5279596;28;20025;-67
2021/08/06 06:28:30;;;;;;;4.32;2.70;;;;;;;17.64;100.00;100072.06;5278909;28;20016;-68
2021/08/06 06:31:02;;;;;;;5.10;2.47;;;;;;;17.59;100.00;100071.84;5282479;28;20073;-68
2021/08/06 06:33:33;;;;;;;3.07;2.47;;;;;;;17.64;100.00;100078.19;5283057;28;20114;-68
2021/08/06 06:36:04;;;;;;;4.70;2.67;;;;;;;17.65;100.00;100076.34;5284416;28;20115;-69
2021/08/06 06:38:36;;;;;;;2.43;1.93;;;;;;;17.78;100.00;100083.63;5284418;28;20492;-68
2021/08/06 06:41:07;;;;;;;2.50;1.92;;;;;;;17.70;100.00;100076.59;5284939;28;20550;-68
2021/08/06 06:43:38;;;;;;;3.47;2.13;;;;;;;17.73;100.00;100077.03;5284817;28;20081;-67
2021/08/06 06:46:10;;;;;;;4.53;2.40;;;;;;;17.74;100.00;100076.03;5285181;28;20032;-67
2021/08/06 06:48:41;;;;;;;3.93;2.70;;;;;;;17.77;100.00;100079.31;5284147;28;20048;-67
2021/08/06 06:51:12;;;;;;;3.20;2.27;;;;;;;17.80;100.00;100085.03;5283254;28;20053;-72
2021/08/06 06:53:46;;;;;;;5.57;2.43;;;;;;;17.82;100.00;100082.22;5284146;28;20051;-67
2021/08/06 06:56:17;;;;;;;4.38;2.75;;;;;;;17.83;100.00;100091.78;5281172;28;20507;-67
2021/08/06 06:58:48;;;;;;;4.25;2.63;;;;;;;17.79;100.00;100085.25;5284068;28;20035;-67
2021/08/06 07:01:20;;;;;;;4.65;2.75;;;;;;;17.84;100.00;100102.19;5283975;28;20498;-67
2021/08/06 07:03:51;;;;;;;4.20;2.90;;;;;;;17.86;100.00;100096.69;5281174;28;20170;-67
2021/08/06 07:06:22;;;;;;;4.20;2.72;;;;;;;17.94;100.00;100107.13;5284117;28;20032;-67
2021/08/06 07:08:54;;;;;;;5.32;2.92;;;;;;;17.93;100.00;100105.50;5280073;28;20023;-67
2021/08/06 07:11:25;;;;;;;3.15;2.40;;;;;;;17.94;100.00;100107.13;5283883;28;20085;-67
2021/08/06 07:13:56;;;;;;;6.50;2.90;;;;;;;17.99;100.00;100112.66;5282791;28;20028;-67
2021/08/06 07:16:28;;;;;;;4.97;2.80;;;;;;;18.06;100.00;100113.50;5283773;28;20122;-67
2021/08/06 07:18:59;;;;;;;5.27;3.10;;;;;;;18.12;100.00;100119.88;5282824;28;20029;-67
2021/08/06 07:21:30;;;;;;;3.87;2.97;;;;;;;18.20;100.00;100117.84;5283443;28;20293;-67
2021/08/06 07:24:02;;;;;;;4.40;2.97;;;;;;;18.32;100.00;100118.09;5284157;28;20036;-67
2021/08/06 07:26:33;;;;;;;4.23;3.00;;;;;;;18.40;100.00;100111.81;5283560;28;20071;-67
2021/08/06 07:29:04;;;;;;;6.53;3.33;;;;;;;18.38;100.00;100109.38;5284125;28;20024;-67
2021/08/06 07:31:36;;;;;;;7.72;3.17;;;;;;;18.45;100.00;100102.25;5283507;28;20070;-67
2021/08/06 07:34:07;;;;;;;5.33;3.10;;;;;;;18.49;100.00;100102.66;5284083;28;20028;-67
2021/08/06 07:36:38;;;;;;;5.67;2.83;;;;;;;18.62;100.00;100104.53;5283728;28;20504;-67
2021/08/06 07:39:09;;;;;;;4.77;3.10;;;;;;;18.58;100.00;100120.03;5284705;28;20020;-67
2021/08/06 07:41:41;;;;;;;3.65;3.08;;;;;;;18.63;100.00;100124.72;5281553;28;20070;-67
2021/08/06 07:44:12;;;;;;;6.07;3.03;;;;;;;18.58;100.00;100122.69;5283341;28;20589;-67
2021/08/06 07:46:43;;;;;;;5.03;2.97;;;;;;;18.58;100.00;100121.88;5281649;28;20024;-66
2021/08/06 07:49:15;;;;;;;5.77;3.20;;;;;;;18.68;100.00;100119.66;5281205;28;20354;-67
2021/08/06 07:51:46;;;;;;;5.27;3.10;;;;;;;18.62;100.00;100123.09;5283273;28;20031;-67
2021/08/06 07:54:18;;;;;;;7.07;3.23;;;;;;;18.84;100.00;100123.78;5283038;28;20416;-67
2021/08/06 07:56:49;;;;;;;4.73;2.60;;;;;;;18.94;100.00;100126.84;5281556;28;20024;-66
2021/08/06 07:59:21;;;;;;;6.07;3.10;;;;;;;19.01;100.00;100122.38;5288338;28;20039;-66
2021/08/06 08:01:54;;;;;;;7.00;3.38;;;;;;;19.03;100.00;100124.84;5286312;28;20032;-67
2021/08/06 08:04:25;;;;;;;6.78;3.10;;;;;;;19.08;100.00;100131.16;5284454;28;20021;-67
2021/08/06 08:06:56;;;;;;;4.47;2.83;;;;;;;19.18;100.00;100126.28;5281084;28;20028;-67
2021/08/06 08:09:28;;;;;;;6.53;3.03;;;;;;;19.19;100.00;100132.41;5287335;28;20028;-67
2021/08/06 08:11:59;;;;;;;5.43;2.93;;;;;;;19.21;100.00;100125.06;5283177;28;20028;-67
2021/08/06 08:14:30;;;;;;;4.10;2.97;;;;;;;19.24;100.00;100129.13;5284540;28;20119;-67
2021/08/06 08:17:02;;;;;;;6.73;3.27;;;;;;;19.38;100.00;100134.25;5288283;28;20500;-67
2021/08/06 08:19:33;;;;;;;4.93;2.83;;;;;;;19.58;100.00;100138.72;5287059;28;20040;-67
2021/08/06 08:22:04;;;;;;;3.50;2.80;;;;;;;19.66;100.00;100128.75;5288113;28;20488;-66
2021/08/06 08:24:37;;;;;;;5.53;3.17;;;;;;;19.74;100.00;100130.38;5285793;28;20032;-67
2021/08/06 08:27:09;;;;;;;5.28;2.65;;;;;;;19.85;100.00;100135.03;5284908;28;20054;-67
2021/08/06 08:29:40;;;;;;;6.00;3.10;;;;;;;19.80;100.00;100137.50;5285936;28;20150;-66
2021/08/06 08:32:13;;;;;;;7.43;2.97;;;;;;;19.74;100.00;100140.19;5286177;28;20035;-67
2021/08/06 08:34:44;;;;;;;3.92;2.50;;;;;;;19.80;100.00;100140.16;5283972;28;20021;-66
2021/08/06 08:37:15;;;;;;;6.57;2.77;;;;;;;19.87;100.00;100137.47;5285992;28;20032;-67
2021/08/06 08:39:47;;;;;;;6.67;2.63;;;;;;;20.04;100.00;100128.03;5283565;28;20035;-66
2021/08/06 08:42:19;;;;;;;5.37;2.43;;;;;;;20.02;100.00;100135.41;5284696;28;20060;-66
2021/08/06 08:44:51;;;;;;;7.38;2.72;;;;;;;19.95;100.00;100131.13;5285549;28;20085;-66
2021/08/06 08:47:23;;;;;;;5.13;2.50;;;;;;;20.08;100.00;100131.09;5281648;28;20020;-67
2021/08/06 08:49:55;;;;;;;;;;;;;;;20.36;100.00;100128.13;5286100;28;20032;-67
2021/08/06 08:52:26;;;;;;;4.67;2.00;;;;;;;20.18;100.00;100126.13;5286743;28;19923;-68
2021/08/06 08:54:58;;;;;;;3.93;2.20;;;;;;;20.21;100.00;100132.88;5282392;28;20055;-68
2021/08/06 08:57:30;;;;;;;3.92;2.22;;;;;;;20.23;100.00;100134.31;5281040;28;20108;-66
2021/08/06 09:00:04;;;;;;;7.83;2.27;;;;;;;20.35;100.00;100129.16;5283258;28;20040;-66
2021/08/06 09:02:39;;;;;;;4.78;2.25;;;;;;;20.37;100.00;100135.88;5281143;28;20119;-67
2021/08/06 09:05:11;;;;;;;5.90;2.25;;;;;;;20.45;100.00;100136.66;5279551;28;20028;-67
2021/08/06 09:07:43;;;;;;;5.83;2.40;;;;;;;20.47;100.00;100124.78;5281803;28;20020;-67
2021/08/06 09:10:21;;;;;;;5.65;2.35;;;;;;;20.70;100.00;100120.81;5280775;28;20463;-67
2021/08/06 09:13:01;;;;;;;4.28;2.30;;;;;;;20.69;100.00;100129.84;5279363;28;20568;-66
2021/08/06 09:15:46;;;;;;;4.40;2.30;;;;;;;20.85;100.00;100131.97;5278260;28;20093;-66
2021/08/06 09:18:23;;;;;;;5.13;1.80;;;;;;;20.84;100.00;100127.69;5283360;28;20382;-66
2021/08/06 09:21:00;;;;;;;3.75;1.98;;;;;;;20.71;100.00;100128.56;5277439;28;20564;-66
2021/08/06 09:23:36;;;;;;;7.40;2.25;;;;;;;20.74;100.00;100125.47;5277767;28;20115;-66
2021/08/06 09:26:27;;;;;;;4.03;1.90;;;;;;;20.79;99.71;100130.16;5275990;28;20052;-66
2021/08/06 09:29:03;;;;;;;5.05;1.38;;;;;;;20.97;98.41;100127.59;5271988;28;21203;-66
2021/08/06 09:31:39;;;;;;;6.30;1.95;;;;;;;21.17;97.19;100137.28;5283821;28;20064;-67
2021/08/06 09:34:20;;;;;;;4.47;1.40;;;;;;;21.21;95.62;100141.13;5274975;28;20117;-67
2021/08/06 09:37:10;;;;;;;5.15;1.60;;;;;;;21.41;95.20;100141.03;5273803;28;20024;-66
2021/08/06 09:39:47;;;;;;;3.75;1.40;;;;;;;21.42;94.56;100142.66;5268560;28;20062;-66
2021/08/06 09:42:25;;;;;;;4.15;1.63;;;;;;;21.44;94.34;100144.06;5281385;28;20493;-67
2021/08/06 09:45:05;;;;;;;5.13;1.83;;;;;;;21.47;92.80;100138.28;5280586;28;20031;-67
2021/08/06 09:47:39;;;;;;;4.57;1.63;;;;;;;21.64;92.44;100143.06;5283384;28;20020;-67
2021/08/06 09:50:17;;;;;;;3.10;1.60;;;;;;;21.52;92.51;100145.63;5281606;28;20512;-66
2021/08/06 09:52:51;;;;;;;4.00;1.80;;;;;;;21.38;91.84;100152.91;5282528;28;20027;-67
2021/08/06 09:55:37;;;;;;;2.75;1.60;;;;;;;21.30;91.68;100153.16;5283528;28;20029;-67
2021/08/06 09:58:11;;;;;;;5.18;2.17;;;;;;;21.14;92.12;100144.69;5284389;28;20025;-67
2021/08/06 10:00:46;;;;;;;4.72;1.85;;;;;;;21.25;94.71;100158.31;5283722;28;20020;-66
2021/08/06 10:03:23;;;;;;;4.72;1.90;;;;;;;21.27;93.88;100153.59;5282406;28;20081;-66
2021/08/06 10:06:15;;;;;;;3.25;1.60;;;;;;;21.34;93.79;100159.72;5285171;28;20472;-67
2021/08/06 10:08:47;;;;;;;3.78;1.83;;;;;;;21.18;93.20;100155.72;5281957;28;20118;-67
2021/08/06 10:11:18;;;;;;;7.93;1.93;;;;;;;21.45;95.06;100151.00;5285350;28;20480;-67
2021/08/06 10:13:49;;;;;;;4.87;1.57;;;;;;;21.47;93.73;100146.28;5274830;28;20546;-69
2021/08/06 10:16:21;;;;;;;3.97;1.43;;;;;;;21.45;91.68;100152.88;5267695;28;20066;-67
2021/08/06 10:18:52;;;;;;;3.20;1.70;;;;;;;21.38;89.99;100144.94;5269446;28;20527;-69
2021/08/06 10:21:24;;;;;;;4.37;1.80;;;;;;;21.41;89.38;100160.47;5267790;28;20084;-69
2021/08/06 10:23:55;;;;;;;4.07;1.40;;;;;;;21.26;90.64;100155.44;5268012;28;20024;-68
2021/08/06 10:26:27;;;;;;;3.70;1.57;;;;;;;21.11;90.89;100153.09;5268808;28;20506;-68
2021/08/06 10:28:59;;;;;;;3.00;1.07;;;;;;;20.93;91.13;100153.00;5266545;28;20031;-68
2021/08/06 10:31:30;;;;;;;4.20;1.50;;;;;;;20.98;91.21;100152.34;5266677;28;20135;-68
2021/08/06 10:34:07;;;;;;;5.27;1.60;;;;;;;21.24;92.13;100151.34;5267265;28;20033;-69
2021/08/06 10:36:47;;;;;;;3.78;1.35;;;;;;;21.49;92.68;100151.41;5268938;28;20040;-69
2021/08/06 10:39:41;;;;;;;4.75;1.50;;;;;;;21.76;90.39;100143.97;5267319;28;20063;-67
2021/08/06 10:42:29;;;;;;;7.80;1.73;;;;;;;21.80;88.33;100161.16;5268475;28;20418;-67
2021/08/06 10:45:00;;;;;;;3.10;1.60;;;;;;;22.00;89.37;100151.06;5267771;28;20147;-67
2021/08/06 10:47:51;;;;;;;2.10;1.07;;;;;;;22.17;86.96;100148.69;5261315;28;20438;-67
2021/08/06 10:50:23;;;;;;;3.80;1.30;;;;;;;22.49;88.35;100157.31;5264837;28;20032;-68
2021/08/06 10:53:19;;;;;;;2.73;1.27;;;;;;;22.69;86.78;100164.22;5268148;28;20578;-68
2021/08/06 10:56:21;;;;;;;2.58;1.23;;;;;;;22.61;82.83;100148.53;5264350;28;20032;-68
2021/08/06 10:58:55;;;;;;;8.60;1.55;;;;;;;22.34;83.83;100140.88;5267003;28;20020;-71
2021/08/06 11:01:27;;;;;;;6.35;1.50;;;;;;;22.44;83.70;100146.50;5251414;28;20032;-69
2021/08/06 11:04:14;;;;;;;6.00;1.80;;;;;;;22.52;83.99;100146.19;5267445;28;20105;-67
2021/08/06 11:06:52;;;;;;;4.47;1.33;;;;;;;22.43;83.58;100144.88;5266735;28;20032;-68
2021/08/06 11:09:26;;;;;;;3.03;1.40;;;;;;;22.40;83.92;100147.19;5265856;28;20038;-69
2021/08/06 11:12:05;;;;;;;2.70;1.15;;;;;;;22.23;84.37;100138.94;5266531;28;20028;-69
2021/08/06 11:14:40;;;;;;;5.25;1.33;;;;;;;21.96;84.99;100152.56;5266382;28;20025;-68
2021/08/06 11:17:18;;;;;;;3.47;1.45;;;;;;;21.65;85.60;100148.16;5267280;28;20028;-68
2021/08/06 11:19:54;;;;;;;2.70;1.30;;;;;;;21.45;88.18;100172.34;5266223;28;20115;-69
2021/08/06 11:22:31;;;;;;;6.25;2.10;;;;;;;20.79;100.00;100191.38;5266883;28;20036;-68
2021/08/06 11:25:15;;;;;;;5.43;1.50;;;;;;;20.43;100.00;100195.41;5266924;28;20056;-70
2021/08/06 11:27:55;;;;;;;2.95;1.45;;;;;;;20.47;100.00;100183.31;5273922;28;20501;-68
2021/08/06 11:30:36;;;;;;;5.93;1.80;;;;;;;20.70;100.00;100179.38;5282908;28;20044;-67
2021/08/06 11:33:10;;;;;;;4.45;1.70;;;;;;;20.80;100.00;100182.41;5280544;28;20078;-67
2021/08/06 11:35:44;;;;;;;3.13;1.67;;;;;;;21.02;100.00;100181.00;5282619;28;20031;-67
2021/08/06 11:38:20;;;;;;;2.97;1.58;;;;;;;21.01;100.00;100178.56;5280492;28;20493;-66
2021/08/06 11:40:56;;;;;;;2.85;1.50;;;;;;;21.16;100.00;100175.59;5284182;28;20770;-67
2021/08/06 11:43:31;;;;;;;2.45;1.25;;;;;;;21.26;100.00;100165.28;5285702;28;20028;-67
2021/08/06 11:46:11;;;;;;;2.03;1.20;;;;;;;21.69;100.00;100157.34;5283282;28;20036;-66
2021/08/06 11:48:50;;;;;;;3.15;1.42;;;;;;;21.72;100.00;100156.09;5286570;28;20052;-67
2021/08/06 11:51:22;;;;;;;1.55;1.00;;;;;;;21.71;100.00;100152.63;5284652;28;20032;-67